WetterOnline ( https://www.wetteronline.de )

Wetter aktuell Niendorf

Aktuelles Wetter: Lübeck/Blankensee (15m)

6-stündlich | Neueste Meldungen
Ortszeit Temperatur Wetter
Sa, 28.03. 19:00 8.1° C leicht bewölkt
Sa, 28.03. 13:00 11.6° C wolkenlos
Sa, 28.03. 7:00 -0.6° C wolkenlos
Sa, 28.03. 1:00 3.8° C wolkenlos
Fr, 27.03. 19:00 6.5° C wolkenlos
Fr, 27.03. 13:00 11.5° C wolkenlos
Fr, 27.03. 7:00 -0.0° C wolkenlos
Fr, 27.03. 1:00 1.1° C wolkenlos
Ortszeit Temperatur Wetter
Sa, 28.03. 19:30 6.8° C wolkenlos
Sa, 28.03. 19:20 6.8° C wolkenlos
Sa, 28.03. 19:10 7.1° C wolkenlos
Sa, 28.03. 19:00 8.1° C leicht bewölkt
Sa, 28.03. 18:50 8.1° C leicht bewölkt
Sa, 28.03. 18:40 8.1° C leicht bewölkt
Sa, 28.03. 18:30 8.8° C leicht bewölkt
Sa, 28.03. 18:00 9.6° C leicht bewölkt
Sa, 28.03. 17:30 10.8° C bewölkt
Sa, 28.03. 17:00 10.8° C wolkig
Sa, 28.03. 16:30 11.3° C wolkenlos
Ortszeit Relative Feuchte Sichtweite
Sa, 28.03. 19:00 64% 30 km
Sa, 28.03. 13:00 38% 35 km
Sa, 28.03. 7:00 94% 4.9 km
Sa, 28.03. 1:00 85% 17 km
Fr, 27.03. 19:00 77% 22 km
Fr, 27.03. 13:00 51% 26 km
Fr, 27.03. 7:00 84% 20 km
Fr, 27.03. 1:00 79% 26 km
Ortszeit Relative Feuchte Sichtweite
Sa, 28.03. 19:30 70% 28 km
Sa, 28.03. 19:20 70% -
Sa, 28.03. 19:10 69% -
Sa, 28.03. 19:00 64% 30 km
Sa, 28.03. 18:50 64% -
Sa, 28.03. 18:40 64% -
Sa, 28.03. 18:30 58% 35 km
Sa, 28.03. 18:00 53% 40 km
Sa, 28.03. 17:30 55% 35 km
Sa, 28.03. 17:00 57% 40 km
Sa, 28.03. 16:30 50% 40 km
Ortszeit Niederschlagsmenge Niederschlagsart
Sa, 28.03. 19:00 0.0 l/m2 in 12 Std. -
Sa, 28.03. 13:00 0.0 l/m2 in 6 Std. -
Sa, 28.03. 7:00 0.0 l/m2 in 12 Std. -
Sa, 28.03. 1:00 0.0 l/m2 in 6 Std. -
Fr, 27.03. 19:00 0.0 l/m2 in 12 Std. -
Fr, 27.03. 13:00 0.0 l/m2 in 6 Std. -
Fr, 27.03. 7:00 0.0 l/m2 in 12 Std. -
Fr, 27.03. 1:00 0.0 l/m2 in 6 Std. -
Ortszeit Niederschlagsmenge Niederschlagsart
Sa, 28.03. 19:30 0.0 l/m2 in 1 Std. -
Sa, 28.03. 19:20 keine Meldung -
Sa, 28.03. 19:10 keine Meldung -
Sa, 28.03. 19:00 0.0 l/m2 in 1 Std. -
Sa, 28.03. 18:50 keine Meldung -
Sa, 28.03. 18:40 keine Meldung -
Sa, 28.03. 18:30 0.0 l/m2 in 1 Std. -
Sa, 28.03. 18:00 0.0 l/m2 in 1 Std. -
Sa, 28.03. 17:30 0.0 l/m2 in 1 Std. -
Sa, 28.03. 17:00 0.0 l/m2 in 1 Std. -
Sa, 28.03. 16:30 0.0 l/m2 in 1 Std. -
Ortszeit Stärke Spitze Richtung
km/h Bft. km/h Grad Sektor
Sa, 28.03. 19:00 7 2 32 360° N
Sa, 28.03. 13:00 13 3 24 330° NW
Sa, 28.03. 7:00 4 1 14 280° W
Sa, 28.03. 1:00 9 2 24 30° NO
Fr, 27.03. 19:00 18 3 36 30° NO
Fr, 27.03. 13:00 19 3 28 40° NO
Fr, 27.03. 7:00 9 2 9 70° O
Fr, 27.03. 1:00 7 2 18 10° N
Ortszeit Stärke Spitze Richtung
km/h Bft. km/h Grad Sektor
Sa, 28.03. 19:30 4 1 7 330° NW
Sa, 28.03. 19:20 4 1 - 330° NW
Sa, 28.03. 19:10 4 1 - 340° N
Sa, 28.03. 19:00 7 2 32 360° N
Sa, 28.03. 18:50 7 2 - 360° N
Sa, 28.03. 18:40 9 2 - 350° N
Sa, 28.03. 18:30 19 3 33 340° N
Sa, 28.03. 18:00 22 4 32 340° N
Sa, 28.03. 17:30 17 3 26 330° NW
Sa, 28.03. 17:00 18 3 32 310° NW
Sa, 28.03. 16:30 20 4 31 330° NW
Ortszeit Untergrenze Bedeckung Gattung
total tief tief mittel hoch
Sa, 28.03. 19:00 7500 m 3/8 0/8 - - -
Sa, 28.03. 13:00 - 0/8 0/8 - - -
Sa, 28.03. 7:00 - 0/8 0/8 - - -
Sa, 28.03. 1:00 - 0/8 0/8 - - -
Fr, 27.03. 19:00 - 0/8 0/8 - - -
Fr, 27.03. 13:00 - 0/8 0/8 - - -
Fr, 27.03. 7:00 - 0/8 0/8 - - -
Fr, 27.03. 1:00 - 0/8 0/8 - - -
Ortszeit Bedeckungsgrad in Achtel und Wolkenuntergrenze
Sa, 28.03. 19:30 keine Wolken
Sa, 28.03. 19:20 keine Wolken
Sa, 28.03. 19:10 keine Wolken
Sa, 28.03. 19:00 3(7500m)
Sa, 28.03. 18:50 3(7500m)
Sa, 28.03. 18:40 5(7800m)
Sa, 28.03. 18:30 4(7800m)
Sa, 28.03. 18:00 3(1320m)
Sa, 28.03. 17:30 7(1260m)
Sa, 28.03. 17:00 2(1110m) 5(1500m)
Sa, 28.03. 16:30 keine Wolken
Ortszeit Luftdruck NN (hPa) Tendenz (hPa in 3 Std.)
Sa, 28.03. 19:00 1021 0,0
Sa, 28.03. 13:00 1022 - 1,1
Sa, 28.03. 7:00 1024 - 0,1
Sa, 28.03. 1:00 1025 - 0,6
Fr, 27.03. 19:00 1024 0,0
Fr, 27.03. 13:00 1025 - 0,9
Fr, 27.03. 7:00 1027 - 0,4
Fr, 27.03. 1:00 1027 - 0,6
Ortszeit Luftdruck NN (hPa) Tendenz (hPa in 3 Std.)
Sa, 28.03. 19:30 1021 + 0,3
Sa, 28.03. 19:20 1021 keine Meldung
Sa, 28.03. 19:10 1021 keine Meldung
Sa, 28.03. 19:00 1021 0,0
Sa, 28.03. 18:50 1021 keine Meldung
Sa, 28.03. 18:40 1021 keine Meldung
Sa, 28.03. 18:30 1021 - 0,2
Sa, 28.03. 18:00 1020 - 0,6
Sa, 28.03. 17:30 1020 - 1,1
Sa, 28.03. 17:00 1020 - 1,5
Sa, 28.03. 16:30 1020 - 1,8
Ortszeit Schneehöhe (cm)
Sa, 28.03. 19:00 0
Sa, 28.03. 13:00 0
Sa, 28.03. 7:00 0
Sa, 28.03. 1:00 0
Fr, 27.03. 19:00 0
Fr, 27.03. 13:00 0
Fr, 27.03. 7:00 0
Fr, 27.03. 1:00 0
Ortszeit Schneehöhe (cm)
Sa, 28.03. 19:30 0
Sa, 28.03. 19:20 0
Sa, 28.03. 19:10 0
Sa, 28.03. 19:00 0
Sa, 28.03. 18:50 0
Sa, 28.03. 18:40 0
Sa, 28.03. 18:30 0
Sa, 28.03. 18:00 0
Sa, 28.03. 17:30 0
Sa, 28.03. 17:00 0
Sa, 28.03. 16:30 0
Link zu dieser Seite / Seite empfehlen

Das Wetter in ...